Boituva, Brazil
Current Conditions -  °F | °C
As of 6:00 PM on Saturday 25 Oct 2014 (Local Time) from SBKP Reporting Station
Scattered Clouds Scattered Clouds  
Wind Chill: 75°   Ceiling: Unl
Heat Index: 75°   Visibility: 6mi
Dew Point: 63°   Wind: 10mph
Humidity: 65%   Direction: 10°N
Pressure: 29.97"   Gusts: NA
Location:  23.28°S, 47.69°W
Report Text: SBKP 252000Z 01009KT 9999 SCT040 FEW050TCU 24/17 Q1015
Loading
Personal Weather Stations






























Interactive Weather Map
Tropical Storm Tracking
New forecast layout! Learn more

10-Day Weather Forecast

Advertisements
Track Severe Weather on mobile